sensor_id;sensor_type;location;lat;lon;timestamp;pressure;altitude;pressure_sealevel;temperature;humidity
75650;BME280;64245;51.282;22.494;2023-05-07T00:01:28;99431.28;;;4.09;100.00
75650;BME280;64245;51.282;22.494;2023-05-07T00:03:54;99420.81;;;4.06;100.00
75650;BME280;64245;51.282;22.494;2023-05-07T00:06:19;99426.56;;;4.00;100.00
75650;BME280;64245;51.282;22.494;2023-05-07T00:08:45;99411.56;;;4.12;100.00
75650;BME280;64245;51.282;22.494;2023-05-07T00:11:10;99405.38;;;4.11;100.00
75650;BME280;64245;51.282;22.494;2023-05-07T00:13:36;99419.28;;;4.16;100.00
75650;BME280;64245;51.282;22.494;2023-05-07T00:16:02;99418.25;;;4.05;100.00
75650;BME280;64245;51.282;22.494;2023-05-07T00:18:28;99397.06;;;4.03;100.00
75650;BME280;64245;51.282;22.494;2023-05-07T00:20:54;99423.75;;;4.16;100.00
75650;BME280;64245;51.282;22.494;2023-05-07T00:23:20;99401.41;;;4.04;100.00
75650;BME280;64245;51.282;22.494;2023-05-07T00:25:45;99419.66;;;4.10;100.00
75650;BME280;64245;51.282;22.494;2023-05-07T00:28:11;99406.00;;;4.02;100.00
75650;BME280;64245;51.282;22.494;2023-05-07T00:30:36;99406.09;;;4.01;100.00
75650;BME280;64245;51.282;22.494;2023-05-07T00:33:02;99424.59;;;4.16;100.00
75650;BME280;64245;51.282;22.494;2023-05-07T00:35:28;99441.66;;;4.14;100.00
75650;BME280;64245;51.282;22.494;2023-05-07T00:37:55;99430.44;;;4.09;100.00
75650;BME280;64245;51.282;22.494;2023-05-07T00:40:21;99402.31;;;3.91;100.00
75650;BME280;64245;51.282;22.494;2023-05-07T00:42:47;99400.13;;;3.97;100.00
75650;BME280;64245;51.282;22.494;2023-05-07T00:45:15;99427.22;;;4.04;100.00
75650;BME280;64245;51.282;22.494;2023-05-07T00:47:41;99430.59;;;4.20;100.00
75650;BME280;64245;51.282;22.494;2023-05-07T00:50:08;99413.06;;;4.03;100.00
75650;BME280;64245;51.282;22.494;2023-05-07T00:52:36;99432.94;;;4.25;100.00
75650;BME280;64245;51.282;22.494;2023-05-07T00:55:05;99431.84;;;4.14;100.00
75650;BME280;64245;51.282;22.494;2023-05-07T00:57:39;99437.19;;;4.14;100.00
75650;BME280;64245;51.282;22.494;2023-05-07T01:00:06;99421.78;;;4.05;100.00
75650;BME280;64245;51.282;22.494;2023-05-07T01:02:34;99433.75;;;4.12;100.00
75650;BME280;64245;51.282;22.494;2023-05-07T01:05:00;99430.44;;;4.09;100.00
75650;BME280;64245;51.282;22.494;2023-05-07T01:07:27;99444.41;;;4.12;100.00
75650;BME280;64245;51.282;22.494;2023-05-07T01:09:53;99423.34;;;3.95;100.00
75650;BME280;64245;51.282;22.494;2023-05-07T01:12:19;99456.13;;;4.10;100.00
75650;BME280;64245;51.282;22.494;2023-05-07T01:14:45;99427.72;;;3.96;100.00
75650;BME280;64245;51.282;22.494;2023-05-07T01:17:11;99424.19;;;3.96;100.00
75650;BME280;64245;51.282;22.494;2023-05-07T01:19:36;99438.94;;;4.01;100.00
75650;BME280;64245;51.282;22.494;2023-05-07T01:22:07;99436.38;;;4.00;100.00
75650;BME280;64245;51.282;22.494;2023-05-07T01:24:35;99422.22;;;3.85;100.00
75650;BME280;64245;51.282;22.494;2023-05-07T01:27:02;99422.59;;;3.93;100.00
75650;BME280;64245;51.282;22.494;2023-05-07T01:29:28;99418.59;;;3.86;100.00
75650;BME280;64245;51.282;22.494;2023-05-07T01:31:57;99436.56;;;3.97;100.00
75650;BME280;64245;51.282;22.494;2023-05-07T01:34:25;99439.13;;;3.98;100.00
75650;BME280;64245;51.282;22.494;2023-05-07T01:36:53;99425.53;;;3.89;100.00
75650;BME280;64245;51.282;22.494;2023-05-07T01:39:24;99440.00;;;3.99;100.00
75650;BME280;64245;51.282;22.494;2023-05-07T01:41:50;99431.25;;;3.97;100.00
75650;BME280;64245;51.282;22.494;2023-05-07T01:44:16;99423.25;;;3.97;100.00
75650;BME280;64245;51.282;22.494;2023-05-07T01:46:44;99435.31;;;4.02;100.00
75650;BME280;64245;51.282;22.494;2023-05-07T01:49:10;99422.78;;;3.90;100.00
75650;BME280;64245;51.282;22.494;2023-05-07T01:51:36;99438.28;;;3.98;100.00
75650;BME280;64245;51.282;22.494;2023-05-07T01:54:01;99418.41;;;3.89;100.00
75650;BME280;64245;51.282;22.494;2023-05-07T01:56:27;99441.81;;;3.98;100.00
75650;BME280;64245;51.282;22.494;2023-05-07T01:58:53;99446.41;;;4.09;100.00
75650;BME280;64245;51.282;22.494;2023-05-07T02:01:18;99442.94;;;3.94;100.00
75650;BME280;64245;51.282;22.494;2023-05-07T02:03:44;99424.69;;;3.88;100.00
75650;BME280;64245;51.282;22.494;2023-05-07T02:06:10;99449.38;;;4.04;100.00
75650;BME280;64245;51.282;22.494;2023-05-07T02:08:36;99445.88;;;4.04;100.00
75650;BME280;64245;51.282;22.494;2023-05-07T02:11:02;99433.53;;;3.89;100.00
75650;BME280;64245;51.282;22.494;2023-05-07T02:13:32;99456.47;;;3.91;100.00
75650;BME280;64245;51.282;22.494;2023-05-07T02:15:58;99457.88;;;3.97;100.00
75650;BME280;64245;51.282;22.494;2023-05-07T02:18:24;99447.81;;;3.88;100.00
75650;BME280;64245;51.282;22.494;2023-05-07T02:20:50;99443.75;;;3.82;100.00
75650;BME280;64245;51.282;22.494;2023-05-07T02:23:15;99432.13;;;3.83;100.00
75650;BME280;64245;51.282;22.494;2023-05-07T02:25:41;99432.88;;;3.85;100.00
75650;BME280;64245;51.282;22.494;2023-05-07T02:28:06;99462.66;;;3.92;100.00
75650;BME280;64245;51.282;22.494;2023-05-07T02:30:32;99460.28;;;3.87;100.00
75650;BME280;64245;51.282;22.494;2023-05-07T02:32:58;99447.38;;;3.81;100.00
75650;BME280;64245;51.282;22.494;2023-05-07T02:35:25;99455.78;;;3.88;100.00
75650;BME280;64245;51.282;22.494;2023-05-07T02:37:50;99452.19;;;3.89;100.00
75650;BME280;64245;51.282;22.494;2023-05-07T02:40:17;99438.81;;;3.76;100.00
75650;BME280;64245;51.282;22.494;2023-05-07T02:42:42;99449.28;;;3.79;100.00
75650;BME280;64245;51.282;22.494;2023-05-07T02:45:08;99456.75;;;3.87;100.00
75650;BME280;64245;51.282;22.494;2023-05-07T02:47:34;99442.69;;;3.85;100.00
75650;BME280;64245;51.282;22.494;2023-05-07T02:50:00;99435.09;;;3.78;100.00
75650;BME280;64245;51.282;22.494;2023-05-07T02:52:25;99450.88;;;3.81;100.00
75650;BME280;64245;51.282;22.494;2023-05-07T02:54:51;99451.34;;;3.74;100.00
75650;BME280;64245;51.282;22.494;2023-05-07T02:57:17;99457.44;;;3.76;100.00
75650;BME280;64245;51.282;22.494;2023-05-07T02:59:43;99459.91;;;3.79;100.00
75650;BME280;64245;51.282;22.494;2023-05-07T03:02:09;99468.50;;;3.84;100.00
75650;BME280;64245;51.282;22.494;2023-05-07T03:04:35;99483.63;;;3.84;100.00
75650;BME280;64245;51.282;22.494;2023-05-07T03:07:00;99462.22;;;3.71;100.00
75650;BME280;64245;51.282;22.494;2023-05-07T03:09:26;99468.56;;;3.68;100.00
75650;BME280;64245;51.282;22.494;2023-05-07T03:11:52;99475.44;;;3.72;100.00
75650;BME280;64245;51.282;22.494;2023-05-07T03:14:18;99489.13;;;3.80;100.00
75650;BME280;64245;51.282;22.494;2023-05-07T03:16:43;99492.94;;;3.76;100.00
75650;BME280;64245;51.282;22.494;2023-05-07T03:19:09;99476.66;;;3.67;100.00
75650;BME280;64245;51.282;22.494;2023-05-07T03:21:34;99484.09;;;3.76;100.00
75650;BME280;64245;51.282;22.494;2023-05-07T03:24:00;99485.50;;;3.67;100.00
75650;BME280;64245;51.282;22.494;2023-05-07T03:26:26;99496.25;;;3.66;100.00
75650;BME280;64245;51.282;22.494;2023-05-07T03:28:51;99492.84;;;3.64;100.00
75650;BME280;64245;51.282;22.494;2023-05-07T03:31:17;99495.69;;;3.75;100.00
75650;BME280;64245;51.282;22.494;2023-05-07T03:33:54;99474.84;;;3.67;100.00
75650;BME280;64245;51.282;22.494;2023-05-07T03:36:21;99505.78;;;3.84;100.00
75650;BME280;64245;51.282;22.494;2023-05-07T03:38:47;99492.75;;;3.65;100.00
75650;BME280;64245;51.282;22.494;2023-05-07T03:41:13;99498.63;;;3.70;100.00
75650;BME280;64245;51.282;22.494;2023-05-07T03:43:39;99510.53;;;3.79;100.00
75650;BME280;64245;51.282;22.494;2023-05-07T03:46:05;99503.78;;;3.73;100.00
75650;BME280;64245;51.282;22.494;2023-05-07T03:48:31;99489.03;;;3.54;100.00
75650;BME280;64245;51.282;22.494;2023-05-07T03:50:57;99494.38;;;3.54;100.00
75650;BME280;64245;51.282;22.494;2023-05-07T03:53:24;99497.78;;;3.56;100.00
75650;BME280;64245;51.282;22.494;2023-05-07T03:55:49;99509.88;;;3.61;100.00
75650;BME280;64245;51.282;22.494;2023-05-07T03:58:15;99505.78;;;3.56;100.00
75650;BME280;64245;51.282;22.494;2023-05-07T04:00:41;99529.75;;;3.70;100.00
75650;BME280;64245;51.282;22.494;2023-05-07T04:03:07;99511.88;;;3.58;100.00
75650;BME280;64245;51.282;22.494;2023-05-07T04:05:33;99522.41;;;3.73;100.00
75650;BME280;64245;51.282;22.494;2023-05-07T04:07:59;99534.41;;;3.66;100.00
75650;BME280;64245;51.282;22.494;2023-05-07T04:10:25;99535.66;;;3.61;100.00
75650;BME280;64245;51.282;22.494;2023-05-07T04:12:51;99511.19;;;3.40;100.00
75650;BME280;64245;51.282;22.494;2023-05-07T04:15:17;99535.66;;;3.61;100.00
75650;BME280;64245;51.282;22.494;2023-05-07T04:17:42;99551.34;;;3.65;100.00
75650;BME280;64245;51.282;22.494;2023-05-07T04:20:15;99543.06;;;3.70;100.00
75650;BME280;64245;51.282;22.494;2023-05-07T04:22:41;99556.00;;;3.76;100.00
75650;BME280;64245;51.282;22.494;2023-05-07T04:25:08;99547.53;;;3.69;100.00
75650;BME280;64245;51.282;22.494;2023-05-07T04:27:35;99544.00;;;3.69;100.00
75650;BME280;64245;51.282;22.494;2023-05-07T04:30:01;99561.44;;;3.60;100.00
75650;BME280;64245;51.282;22.494;2023-05-07T04:32:29;99550.38;;;3.52;100.00
75650;BME280;64245;51.282;22.494;2023-05-07T04:34:55;99547.16;;;3.61;100.00
75650;BME280;64245;51.282;22.494;2023-05-07T04:37:21;99545.44;;;3.60;100.00
75650;BME280;64245;51.282;22.494;2023-05-07T04:39:47;99553.72;;;3.70;100.00
75650;BME280;64245;51.282;22.494;2023-05-07T04:42:16;99545.25;;;3.63;100.00
75650;BME280;64245;51.282;22.494;2023-05-07T04:44:46;99555.34;;;3.72;100.00
75650;BME280;64245;51.282;22.494;2023-05-07T04:47:12;99535.66;;;3.61;100.00
75650;BME280;64245;51.282;22.494;2023-05-07T04:49:38;99565.63;;;3.78;100.00
75650;BME280;64245;51.282;22.494;2023-05-07T04:52:04;99554.56;;;3.70;100.00
75650;BME280;64245;51.282;22.494;2023-05-07T04:54:30;99542.59;;;3.63;100.00
75650;BME280;64245;51.282;22.494;2023-05-07T04:56:57;99579.50;;;3.84;100.00
75650;BME280;64245;51.282;22.494;2023-05-07T04:59:22;99551.72;;;3.73;100.00
75650;BME280;64245;51.282;22.494;2023-05-07T05:01:48;99569.16;;;3.65;100.00
75650;BME280;64245;51.282;22.494;2023-05-07T05:04:13;99583.50;;;3.62;100.00
75650;BME280;64245;51.282;22.494;2023-05-07T05:06:39;99569.00;;;3.52;100.00
75650;BME280;64245;51.282;22.494;2023-05-07T05:09:05;99583.69;;;3.59;100.00
75650;BME280;64245;51.282;22.494;2023-05-07T05:11:31;99573.03;;;3.59;100.00
75650;BME280;64245;51.282;22.494;2023-05-07T05:13:58;99580.34;;;3.70;100.00
75650;BME280;64245;51.282;22.494;2023-05-07T05:16:24;99554.97;;;3.64;100.00
75650;BME280;64245;51.282;22.494;2023-05-07T05:18:50;99588.91;;;3.75;100.00
75650;BME280;64245;51.282;22.494;2023-05-07T05:21:17;99581.78;;;3.75;100.00
75650;BME280;64245;51.282;22.494;2023-05-07T05:23:43;99569.50;;;3.73;100.00
75650;BME280;64245;51.282;22.494;2023-05-07T05:26:09;99578.25;;;3.75;100.00
75650;BME280;64245;51.282;22.494;2023-05-07T05:28:34;99575.69;;;3.88;100.00
75650;BME280;64245;51.282;22.494;2023-05-07T05:31:00;99570.19;;;3.76;100.00
75650;BME280;64245;51.282;22.494;2023-05-07T05:33:26;99563.91;;;3.63;100.00
75650;BME280;64245;51.282;22.494;2023-05-07T05:35:53;99575.03;;;3.84;100.00
75650;BME280;64245;51.282;22.494;2023-05-07T05:38:19;99589.00;;;3.88;100.00
75650;BME280;64245;51.282;22.494;2023-05-07T05:40:44;99581.41;;;3.81;100.00
75650;BME280;64245;51.282;22.494;2023-05-07T05:43:10;99582.63;;;3.76;100.00
75650;BME280;64245;51.282;22.494;2023-05-07T05:45:36;99590.81;;;3.87;100.00
75650;BME280;64245;51.282;22.494;2023-05-07T05:48:01;99611.94;;;3.90;100.00
75650;BME280;64245;51.282;22.494;2023-05-07T05:50:27;99583.94;;;3.69;100.00
75650;BME280;64245;51.282;22.494;2023-05-07T05:52:52;99616.50;;;3.88;100.00
75650;BME280;64245;51.282;22.494;2023-05-07T05:55:18;99599.28;;;3.65;100.00
75650;BME280;64245;51.282;22.494;2023-05-07T05:57:45;99600.25;;;3.78;100.00
75650;BME280;64245;51.282;22.494;2023-05-07T06:00:11;99618.88;;;3.93;100.00
75650;BME280;64245;51.282;22.494;2023-05-07T06:02:37;99614.69;;;3.89;100.00
75650;BME280;64245;51.282;22.494;2023-05-07T06:05:03;99618.81;;;3.94;100.00
75650;BME280;64245;51.282;22.494;2023-05-07T06:07:29;99624.91;;;3.96;100.00
75650;BME280;64245;51.282;22.494;2023-05-07T06:09:55;99607.66;;;3.73;100.00
75650;BME280;64245;51.282;22.494;2023-05-07T06:12:21;99607.19;;;3.81;100.00
75650;BME280;64245;51.282;22.494;2023-05-07T06:14:46;99608.78;;;3.69;100.00
75650;BME280;64245;51.282;22.494;2023-05-07T06:17:12;99612.03;;;3.74;100.00
75650;BME280;64245;51.282;22.494;2023-05-07T06:19:38;99618.63;;;3.83;100.00
75650;BME280;64245;51.282;22.494;2023-05-07T06:22:04;99610.91;;;3.78;100.00
75650;BME280;64245;51.282;22.494;2023-05-07T06:24:29;99621.19;;;3.85;100.00
75650;BME280;64245;51.282;22.494;2023-05-07T06:26:55;99627.75;;;3.93;100.00
75650;BME280;64245;51.282;22.494;2023-05-07T06:29:21;99629.53;;;3.93;100.00
75650;BME280;64245;51.282;22.494;2023-05-07T06:31:46;99624.69;;;3.85;100.00
75650;BME280;64245;51.282;22.494;2023-05-07T06:34:12;99637.75;;;4.04;100.00
75650;BME280;64245;51.282;22.494;2023-05-07T06:36:41;99655.53;;;4.18;100.00
75650;BME280;64245;51.282;22.494;2023-05-07T06:39:06;99644.78;;;4.19;100.00
75650;BME280;64245;51.282;22.494;2023-05-07T06:41:32;99645.63;;;4.05;100.00
75650;BME280;64245;51.282;22.494;2023-05-07T06:43:58;99661.66;;;4.20;100.00
75650;BME280;64245;51.282;22.494;2023-05-07T06:46:24;99666.22;;;4.18;100.00
75650;BME280;64245;51.282;22.494;2023-05-07T06:48:49;99641.06;;;3.93;100.00
75650;BME280;64245;51.282;22.494;2023-05-07T06:51:16;99665.72;;;4.11;100.00
75650;BME280;64245;51.282;22.494;2023-05-07T06:53:41;99657.25;;;4.19;100.00
75650;BME280;64245;51.282;22.494;2023-05-07T06:56:07;99657.53;;;4.28;100.00
75650;BME280;64245;51.282;22.494;2023-05-07T06:58:33;99657.16;;;4.20;100.00
75650;BME280;64245;51.282;22.494;2023-05-07T07:00:59;99671.44;;;4.33;100.00
75650;BME280;64245;51.282;22.494;2023-05-07T07:03:24;99668.50;;;4.38;100.00
75650;BME280;64245;51.282;22.494;2023-05-07T07:05:52;99678.94;;;4.55;100.00
75650;BME280;64245;51.282;22.494;2023-05-07T07:08:18;99679.91;;;4.40;100.00
75650;BME280;64245;51.282;22.494;2023-05-07T07:10:44;99697.63;;;4.41;100.00
75650;BME280;64245;51.282;22.494;2023-05-07T07:13:09;99689.03;;;4.50;100.00
75650;BME280;64245;51.282;22.494;2023-05-07T07:15:35;99689.25;;;4.33;100.00
75650;BME280;64245;51.282;22.494;2023-05-07T07:18:01;99700.84;;;4.46;100.00
75650;BME280;64245;51.282;22.494;2023-05-07T07:20:27;99707.97;;;4.45;100.00
75650;BME280;64245;51.282;22.494;2023-05-07T07:22:52;99700.41;;;4.39;100.00
75650;BME280;64245;51.282;22.494;2023-05-07T07:25:18;99684.94;;;4.44;100.00
75650;BME280;64245;51.282;22.494;2023-05-07T07:27:43;99706.19;;;4.60;100.00
75650;BME280;64245;51.282;22.494;2023-05-07T07:30:09;99686.66;;;4.45;100.00
75650;BME280;64245;51.282;22.494;2023-05-07T07:32:35;99703.41;;;4.47;100.00
75650;BME280;64245;51.282;22.494;2023-05-07T07:35:01;99700.28;;;4.55;99.98
75650;BME280;64245;51.282;22.494;2023-05-07T07:37:27;99713.03;;;4.64;99.68
75650;BME280;64245;51.282;22.494;2023-05-07T07:39:53;99724.06;;;4.72;98.81
75650;BME280;64245;51.282;22.494;2023-05-07T07:42:19;99733.59;;;4.76;98.83
75650;BME280;64245;51.282;22.494;2023-05-07T07:44:45;99700.34;;;4.68;99.68
75650;BME280;64245;51.282;22.494;2023-05-07T07:47:10;99710.44;;;4.77;98.85
75650;BME280;64245;51.282;22.494;2023-05-07T07:49:36;99732.66;;;4.77;98.56
75650;BME280;64245;51.282;22.494;2023-05-07T07:52:02;99739.81;;;4.77;98.32
75650;BME280;64245;51.282;22.494;2023-05-07T07:54:28;99723.03;;;4.75;98.91
75650;BME280;64245;51.282;22.494;2023-05-07T07:56:54;99749.13;;;4.84;99.06
75650;BME280;64245;51.282;22.494;2023-05-07T07:59:20;99732.94;;;4.73;99.48
75650;BME280;64245;51.282;22.494;2023-05-07T08:01:46;99708.53;;;4.65;99.25
75650;BME280;64245;51.282;22.494;2023-05-07T08:04:13;99733.50;;;4.78;98.86
75650;BME280;64245;51.282;22.494;2023-05-07T08:06:39;99729.59;;;4.69;99.26
75650;BME280;64245;51.282;22.494;2023-05-07T08:09:05;99727.75;;;4.84;98.27
75650;BME280;64245;51.282;22.494;2023-05-07T08:11:31;99765.03;;;4.85;98.40
75650;BME280;64245;51.282;22.494;2023-05-07T08:13:57;99747.31;;;4.70;98.63
75650;BME280;64245;51.282;22.494;2023-05-07T08:16:22;99762.47;;;4.70;100.00
75650;BME280;64245;51.282;22.494;2023-05-07T08:18:48;99731.16;;;4.59;99.12
75650;BME280;64245;51.282;22.494;2023-05-07T08:21:13;99746.75;;;4.79;99.97
75650;BME280;64245;51.282;22.494;2023-05-07T08:23:40;99747.13;;;4.88;98.89
75650;BME280;64245;51.282;22.494;2023-05-07T08:26:07;99757.13;;;4.84;98.95
75650;BME280;64245;51.282;22.494;2023-05-07T08:28:33;99748.09;;;4.72;99.57
75650;BME280;64245;51.282;22.494;2023-05-07T08:30:58;99746.19;;;4.74;100.00
75650;BME280;64245;51.282;22.494;2023-05-07T08:33:27;99743.00;;;4.82;99.27
75650;BME280;64245;51.282;22.494;2023-05-07T08:35:52;99741.09;;;4.84;99.56
75650;BME280;64245;51.282;22.494;2023-05-07T08:38:19;99743.00;;;4.82;99.36
75650;BME280;64245;51.282;22.494;2023-05-07T08:40:44;99760.84;;;4.96;99.77
75650;BME280;64245;51.282;22.494;2023-05-07T08:43:13;99771.31;;;4.99;99.44
75650;BME280;64245;51.282;22.494;2023-05-07T08:45:40;99783.97;;;5.09;99.49
75650;BME280;64245;51.282;22.494;2023-05-07T08:48:14;99787.88;;;5.04;99.72
75650;BME280;64245;51.282;22.494;2023-05-07T08:50:40;99792.94;;;5.08;100.00
75650;BME280;64245;51.282;22.494;2023-05-07T08:53:06;99780.19;;;4.99;99.77
75650;BME280;64245;51.282;22.494;2023-05-07T08:55:32;99777.97;;;5.06;99.53
75650;BME280;64245;51.282;22.494;2023-05-07T08:58:02;99797.03;;;5.14;99.05
75650;BME280;64245;51.282;22.494;2023-05-07T09:00:28;99789.06;;;5.00;100.00
75650;BME280;64245;51.282;22.494;2023-05-07T09:02:53;99786.84;;;4.92;100.00
75650;BME280;64245;51.282;22.494;2023-05-07T09:05:20;99800.78;;;4.97;100.00
75650;BME280;64245;51.282;22.494;2023-05-07T09:07:47;99795.81;;;4.91;100.00
75650;BME280;64245;51.282;22.494;2023-05-07T09:10:13;99792.19;;;4.92;100.00
75650;BME280;64245;51.282;22.494;2023-05-07T09:12:39;99814.88;;;4.85;100.00
75650;BME280;64245;51.282;22.494;2023-05-07T09:15:05;99803.66;;;4.80;100.00
75650;BME280;64245;51.282;22.494;2023-05-07T09:17:32;99792.59;;;4.72;100.00
75650;BME280;64245;51.282;22.494;2023-05-07T09:20:05;99824.22;;;4.92;100.00
75650;BME280;64245;51.282;22.494;2023-05-07T09:22:32;99805.94;;;5.00;100.00
75650;BME280;64245;51.282;22.494;2023-05-07T09:25:00;99804.41;;;4.96;99.68
75650;BME280;64245;51.282;22.494;2023-05-07T09:27:26;99820.69;;;4.92;100.00
75650;BME280;64245;51.282;22.494;2023-05-07T09:29:52;99820.88;;;4.89;100.00
75650;BME280;64245;51.282;22.494;2023-05-07T09:32:20;99827.25;;;4.86;99.61
75650;BME280;64245;51.282;22.494;2023-05-07T09:34:46;99794.09;;;4.47;99.31
75650;BME280;64245;51.282;22.494;2023-05-07T09:37:15;99800.97;;;4.51;100.00
75650;BME280;64245;51.282;22.494;2023-05-07T09:39:49;99818.78;;;4.65;100.00
75650;BME280;64245;51.282;22.494;2023-05-07T09:42:23;99805.53;;;4.64;100.00
75650;BME280;64245;51.282;22.494;2023-05-07T09:44:48;99802.69;;;4.67;100.00
75650;BME280;64245;51.282;22.494;2023-05-07T09:47:18;99825.00;;;4.94;100.00
75650;BME280;64245;51.282;22.494;2023-05-07T09:49:47;99811.44;;;4.83;99.53
75650;BME280;64245;51.282;22.494;2023-05-07T09:52:13;99804.78;;;4.90;99.85
75650;BME280;64245;51.282;22.494;2023-05-07T09:54:40;99833.16;;;5.34;99.54
75650;BME280;64245;51.282;22.494;2023-05-07T09:57:07;99832.84;;;5.24;98.64
75650;BME280;64245;51.282;22.494;2023-05-07T09:59:34;99839.16;;;5.23;97.11
75650;BME280;64245;51.282;22.494;2023-05-07T10:02:02;99814.28;;;5.08;97.88
75650;BME280;64245;51.282;22.494;2023-05-07T10:04:29;99829.75;;;5.17;96.38
75650;BME280;64245;51.282;22.494;2023-05-07T10:06:57;99836.56;;;5.36;96.00
75650;BME280;64245;51.282;22.494;2023-05-07T10:09:25;99824.00;;;5.24;94.47
75650;BME280;64245;51.282;22.494;2023-05-07T10:11:52;99859.56;;;5.24;94.70
75650;BME280;64245;51.282;22.494;2023-05-07T10:14:20;99836.56;;;5.21;94.37
75650;BME280;64245;51.282;22.494;2023-05-07T10:16:47;99838.00;;;5.27;93.63
75650;BME280;64245;51.282;22.494;2023-05-07T10:19:14;99848.97;;;5.22;93.90
75650;BME280;64245;51.282;22.494;2023-05-07T10:21:44;99884.25;;;5.42;93.87
75650;BME280;64245;51.282;22.494;2023-05-07T10:24:19;99874.16;;;5.33;92.54
75650;BME280;64245;51.282;22.494;2023-05-07T10:26:48;99871.94;;;5.39;93.01
75650;BME280;64245;51.282;22.494;2023-05-07T10:29:33;99858.03;;;5.20;92.25
75650;BME280;64245;51.282;22.494;2023-05-07T10:34:47;99894.47;;;5.35;93.36
75650;BME280;64245;51.282;22.494;2023-05-07T10:37:14;99888.63;;;5.43;92.13
75650;BME280;64245;51.282;22.494;2023-05-07T10:39:40;99896.63;;;5.43;92.21
75650;BME280;64245;51.282;22.494;2023-05-07T10:42:11;99907.13;;;5.46;91.60
75650;BME280;64245;51.282;22.494;2023-05-07T10:44:36;99892.91;;;5.45;91.46
75650;BME280;64245;51.282;22.494;2023-05-07T10:47:08;99906.88;;;5.77;91.02
75650;BME280;64245;51.282;22.494;2023-05-07T10:52:21;99918.75;;;5.59;90.70
75650;BME280;64245;51.282;22.494;2023-05-07T10:57:51;99884.78;;;5.61;90.37
75650;BME280;64245;51.282;22.494;2023-05-07T11:05:28;99902.47;;;5.49;90.52
75650;BME280;64245;51.282;22.494;2023-05-07T11:07:59;99894.88;;;5.70;90.01
75650;BME280;64245;51.282;22.494;2023-05-07T11:10:53;99907.09;;;5.88;90.48
75650;BME280;64245;51.282;22.494;2023-05-07T11:13:55;99892.41;;;5.67;89.63
75650;BME280;64245;51.282;22.494;2023-05-07T11:16:24;99913.78;;;5.67;90.95
75650;BME280;64245;51.282;22.494;2023-05-07T11:18:55;99890.44;;;5.57;90.21
75650;BME280;64245;51.282;22.494;2023-05-07T11:21:41;99903.75;;;5.71;91.04
75650;BME280;64245;51.282;22.494;2023-05-07T11:24:09;99910.53;;;5.76;91.83
75650;BME280;64245;51.282;22.494;2023-05-07T11:27:01;99926.28;;;5.67;90.07
75650;BME280;64245;51.282;22.494;2023-05-07T11:29:27;99898.66;;;5.53;89.10
75650;BME280;64245;51.282;22.494;2023-05-07T11:31:55;99885.63;;;5.62;89.37
75650;BME280;64245;51.282;22.494;2023-05-07T11:34:23;99916.31;;;5.83;90.24
75650;BME280;64245;51.282;22.494;2023-05-07T11:36:49;99937.91;;;5.80;89.92
75650;BME280;64245;51.282;22.494;2023-05-07T11:39:30;99934.13;;;5.70;90.90
75650;BME280;64245;51.282;22.494;2023-05-07T11:41:57;99945.53;;;5.86;89.23
75650;BME280;64245;51.282;22.494;2023-05-07T11:44:23;99965.28;;;5.83;89.47
75650;BME280;64245;51.282;22.494;2023-05-07T11:46:48;99954.31;;;5.88;89.00
75650;BME280;64245;51.282;22.494;2023-05-07T11:49:16;99958.31;;;5.81;89.15
75650;BME280;64245;51.282;22.494;2023-05-07T11:51:42;99930.50;;;5.71;89.20
75650;BME280;64245;51.282;22.494;2023-05-07T11:54:08;99937.81;;;5.81;89.23
75650;BME280;64245;51.282;22.494;2023-05-07T11:56:36;99933.31;;;5.82;88.96
75650;BME280;64245;51.282;22.494;2023-05-07T11:59:02;99950.88;;;5.86;89.79
75650;BME280;64245;51.282;22.494;2023-05-07T12:01:28;99950.97;;;5.84;90.29
75650;BME280;64245;51.282;22.494;2023-05-07T12:03:54;99967.78;;;5.86;89.02
75650;BME280;64245;51.282;22.494;2023-05-07T12:06:20;99959.38;;;5.78;88.25
75650;BME280;64245;51.282;22.494;2023-05-07T12:08:46;99969.91;;;5.67;88.42
75650;BME280;64245;51.282;22.494;2023-05-07T12:11:22;99960.56;;;5.46;88.38
75650;BME280;64245;51.282;22.494;2023-05-07T12:13:48;99950.47;;;5.37;88.81
75650;BME280;64245;51.282;22.494;2023-05-07T12:16:14;99974.13;;;5.57;88.55
75650;BME280;64245;51.282;22.494;2023-05-07T12:18:40;99991.19;;;5.69;88.76
75650;BME280;64245;51.282;22.494;2023-05-07T12:21:06;99981.06;;;5.74;90.01
75650;BME280;64245;51.282;22.494;2023-05-07T12:23:34;99982.09;;;6.00;88.19
75650;BME280;64245;51.282;22.494;2023-05-07T12:25:59;99973.69;;;6.06;87.60
75650;BME280;64245;51.282;22.494;2023-05-07T12:28:25;99972.25;;;6.00;88.02
75650;BME280;64245;51.282;22.494;2023-05-07T12:30:51;99986.00;;;6.08;88.02
75650;BME280;64245;51.282;22.494;2023-05-07T12:33:20;99963.38;;;5.85;85.93
75650;BME280;64245;51.282;22.494;2023-05-07T12:35:48;99983.91;;;5.99;86.73
75650;BME280;64245;51.282;22.494;2023-05-07T12:38:15;99974.06;;;5.85;87.28
75650;BME280;64245;51.282;22.494;2023-05-07T12:40:47;99968.56;;;5.60;86.86
75650;BME280;64245;51.282;22.494;2023-05-07T12:43:20;99979.16;;;5.76;87.78
75650;BME280;64245;51.282;22.494;2023-05-07T12:45:48;99967.78;;;5.86;87.63
75650;BME280;64245;51.282;22.494;2023-05-07T12:48:14;99988.09;;;6.03;86.41
75650;BME280;64245;51.282;22.494;2023-05-07T12:50:40;99978.66;;;6.12;86.65
75650;BME280;64245;51.282;22.494;2023-05-07T12:53:07;99991.06;;;6.40;86.52
75650;BME280;64245;51.282;22.494;2023-05-07T12:55:47;100003.25;;;6.17;85.57
75650;BME280;64245;51.282;22.494;2023-05-07T12:58:17;100000.56;;;6.17;86.69
75650;BME280;64245;51.282;22.494;2023-05-07T13:00:43;99984.50;;;5.90;86.72
75650;BME280;64245;51.282;22.494;2023-05-07T13:03:10;99993.75;;;5.84;86.45
75650;BME280;64245;51.282;22.494;2023-05-07T13:05:36;100013.59;;;6.09;87.38